Terminal Aerodrome Forecast
Issued by NWS

Current Version | Previous Version | Text Only | Print | Product List | Glossary On
Versions: 1 2 3 4 5 6 7 8 9 10 11 12 13 14 15 16 17 18 19 20
155
FTUS43 KIND 272320
TAFBMG
TAF
KBMG 272320Z 2800/2824 00000KT P6SM VCTS OVC060CB
     FM280500 00000KT 4SM BR VCSH BKN025
     FM280800 VRB03KT 4SM BR VCSH OVC010
     FM281200 03006KT 3SM BR VCTS OVC008CB
     FM281300 03007KT P6SM BKN015
      AMD LTD TO CLD VIS AND WIND 2801/2813=

USA.gov is the U.S. government's official web portal to all federal, state and local government web resources and services.